Time;durP1;ratioP1;P1;durP2;ratioP2;P2;SDS_P1;SDS_P2;PMS_P1;PMS_P2;Temp;Humidity;BMP_temperature;BMP_pressure;BME280_temperature;BME280_humidity;BME280_pressure;Samples;Min_cycle;Max_cycle;Signal;HPM_P1;HPM_P2
2021/11/01 00:02:11;;;;;;;7.77;5.07;;;;;;;13.13;100.00;99066.94;7399386;19;20487;-59
2021/11/01 00:04:44;;;;;;;9.10;6.33;;;;;;;13.15;100.00;99070.38;7395564;19;20387;-59
2021/11/01 00:07:14;;;;;;;5.07;4.03;;;;;;;13.30;100.00;99062.69;7400573;19;20395;-59
2021/11/01 00:09:44;;;;;;;6.20;4.03;;;;;;;13.45;100.00;99073.94;7396456;19;20399;-59
2021/11/01 00:12:16;;;;;;;4.73;3.67;;;;;;;13.53;100.00;99067.09;7399789;19;20422;-59
2021/11/01 00:14:45;;;;;;;4.87;3.40;;;;;;;13.62;100.00;99074.03;7394060;19;20845;-60
2021/11/01 00:17:15;;;;;;;4.47;3.30;;;;;;;13.72;100.00;99078.38;7404605;19;20403;-59
2021/11/01 00:19:44;;;;;;;2.60;1.70;;;;;;;14.12;100.00;99087.94;7392473;19;20395;-60
2021/11/01 00:22:14;;;;;;;3.73;2.63;;;;;;;14.14;100.00;99086.19;7398847;19;20414;-59
2021/11/01 00:24:43;;;;;;;3.83;2.30;;;;;;;14.19;100.00;99083.59;7393899;19;20461;-59
2021/11/01 00:27:15;;;;;;;2.50;1.70;;;;;;;14.28;100.00;99093.13;7400030;19;20457;-59
2021/11/01 00:29:45;;;;;;;7.47;4.13;;;;;;;14.22;100.00;99100.88;7392599;19;20481;-60
2021/11/01 00:32:15;;;;;;;2.83;2.10;;;;;;;14.30;100.00;99101.75;7399572;19;20410;-59
2021/11/01 00:34:45;;;;;;;4.33;2.57;;;;;;;14.25;100.00;99101.75;7393348;19;20387;-59
2021/11/01 00:37:14;;;;;;;5.30;2.17;;;;;;;14.18;100.00;99092.25;7399226;19;20390;-60
2021/11/01 00:39:44;;;;;;;2.97;2.33;;;;;;;14.13;100.00;99091.38;7391327;19;20409;-59
2021/11/01 00:42:16;;;;;;;4.20;2.23;;;;;;;14.12;100.00;99077.56;7399038;19;20486;-60
2021/11/01 00:44:45;;;;;;;4.03;2.40;;;;;;;14.07;100.00;99074.09;7393055;19;20390;-58
2021/11/01 00:47:16;;;;;;;2.83;2.03;;;;;;;14.01;100.00;99087.06;7399602;19;20377;-58
2021/11/01 00:49:45;;;;;;;3.20;1.93;;;;;;;13.96;100.00;99075.81;7393004;19;20676;-59
2021/11/01 00:52:19;;;;;;;5.67;2.43;;;;;;;13.90;100.00;99076.69;7398643;19;20447;-59
2021/11/01 00:54:49;;;;;;;2.53;1.97;;;;;;;13.85;100.00;99086.16;7392797;19;20472;-59
2021/11/01 00:57:21;;;;;;;3.80;2.37;;;;;;;13.77;100.00;99091.34;7399294;19;20410;-59
2021/11/01 00:59:50;;;;;;;4.27;2.63;;;;;;;13.71;100.00;99104.28;7392550;19;20391;-59
2021/11/01 01:02:20;;;;;;;5.87;3.00;;;;;;;13.55;100.00;99090.41;7398819;19;20430;-59
2021/11/01 01:04:50;;;;;;;4.77;2.10;;;;;;;13.40;100.00;99109.31;7392380;19;20456;-58
2021/11/01 01:07:19;;;;;;;3.10;1.87;;;;;;;13.26;100.00;99120.50;7399799;19;20411;-59
2021/11/01 01:09:50;;;;;;;3.17;1.87;;;;;;;13.21;100.00;99117.00;7392267;19;20380;-59
2021/11/01 01:12:23;;;;;;;6.63;2.37;;;;;;;13.12;100.00;99112.66;7399011;19;20414;-59
2021/11/01 01:14:56;;;;;;;3.63;1.70;;;;;;;13.09;100.00;99118.69;7392863;19;20513;-60
2021/11/01 01:17:26;;;;;;;8.10;2.00;;;;;;;13.03;100.00;99110.88;7398949;19;20395;-60
2021/11/01 01:20:03;;;;;;;7.70;2.03;;;;;;;12.98;100.00;99112.59;7391429;19;20432;-60
2021/11/01 01:22:34;;;;;;;12.97;2.30;;;;;;;12.94;100.00;99121.19;7398221;19;20425;-60
2021/11/01 01:25:20;;;;;;;4.83;2.10;;;;;;;12.82;100.00;99125.44;7391370;19;20472;-59
2021/11/01 01:27:54;;;;;;;4.20;1.97;;;;;;;12.74;100.00;99141.75;7397323;19;20873;-60
2021/11/01 01:30:24;;;;;;;9.07;1.40;;;;;;;12.63;100.00;99128.75;7391131;19;20427;-60
2021/11/01 01:32:54;;;;;;;6.77;1.70;;;;;;;12.52;100.00;99139.03;7398206;19;20434;-59
2021/11/01 01:35:24;;;;;;;8.73;2.50;;;;;;;12.43;100.00;99173.44;7393052;19;20960;-60
2021/11/01 01:37:54;;;;;;;7.07;1.93;;;;;;;12.29;100.00;99184.53;7398023;19;20387;-60
2021/11/01 01:40:24;;;;;;;8.87;2.20;;;;;;;12.20;100.00;99181.00;7391381;19;20433;-59
2021/11/01 01:42:56;;;;;;;12.90;2.10;;;;;;;12.16;100.00;99174.91;7397008;19;20418;-59
2021/11/01 01:45:26;;;;;;;8.83;1.93;;;;;;;12.06;100.00;99183.41;7390968;19;20423;-58
2021/11/01 01:47:56;;;;;;;15.57;3.03;;;;;;;12.01;100.00;99176.44;7398456;19;20382;-60
2021/11/01 01:50:25;;;;;;;10.30;2.37;;;;;;;11.96;100.00;99175.56;7390329;19;20712;-60
2021/11/01 01:52:56;;;;;;;21.57;2.20;;;;;;;11.92;100.00;99173.78;7401275;19;20489;-59
2021/11/01 01:55:26;;;;;;;10.00;2.40;;;;;;;11.87;100.00;99178.91;7398473;19;20416;-60
2021/11/01 01:57:58;;;;;;;11.73;2.83;;;;;;;11.85;100.00;99174.56;7409514;19;20922;-59
2021/11/01 02:00:40;;;;;;;9.47;2.43;;;;;;;11.81;100.00;99175.38;7397822;19;20420;-60
2021/11/01 02:03:11;;;;;;;12.17;2.07;;;;;;;11.75;100.00;99171.84;7403175;19;20412;-59
2021/11/01 02:05:48;;;;;;;8.60;2.37;;;;;;;11.77;100.00;99160.66;7398296;19;20437;-60
2021/11/01 02:08:20;;;;;;;13.47;2.60;;;;;;;11.74;100.00;99167.53;7405420;19;20391;-59
2021/11/01 02:10:56;;;;;;;14.60;2.47;;;;;;;11.71;100.00;99175.28;7397656;19;20440;-59
2021/11/01 02:13:29;;;;;;;18.13;2.30;;;;;;;11.67;100.00;99158.00;7406607;19;20462;-60
2021/11/01 02:16:00;;;;;;;11.93;1.70;;;;;;;11.65;100.00;99151.06;7398153;19;20422;-59
2021/11/01 02:18:34;;;;;;;17.50;2.57;;;;;;;11.61;100.00;99142.41;7404079;19;20383;-59
2021/11/01 02:21:20;;;;;;;10.80;2.17;;;;;;;11.58;100.00;99155.28;7395565;19;20424;-59
2021/11/01 02:23:53;;;;;;;11.13;2.43;;;;;;;11.53;100.00;99146.63;7405031;19;20384;-59
2021/11/01 02:26:26;;;;;;;10.13;2.17;;;;;;;11.50;100.00;99154.31;7401188;19;20455;-60
2021/11/01 02:28:56;;;;;;;18.43;2.50;;;;;;;11.44;100.00;99161.16;7403295;19;20457;-59
2021/11/01 02:31:25;;;;;;;15.87;2.10;;;;;;;11.43;100.00;99148.25;7396558;19;20423;-60
2021/11/01 02:33:55;;;;;;;15.37;2.17;;;;;;;11.41;100.00;99148.22;7402879;19;20468;-59
2021/11/01 02:36:25;;;;;;;16.73;3.83;;;;;;;11.41;100.00;99137.88;7396767;19;20427;-60
2021/11/01 02:38:57;;;;;;;13.80;2.47;;;;;;;11.38;100.00;99136.97;7402311;19;20667;-58
2021/11/01 02:41:33;;;;;;;12.07;2.23;;;;;;;11.38;100.00;99137.81;7397066;19;20416;-59
2021/11/01 02:44:03;;;;;;;21.00;2.57;;;;;;;11.33;100.00;99137.78;7404514;19;20408;-59
2021/11/01 02:46:37;;;;;;;22.70;2.50;;;;;;;11.31;100.00;99126.56;7396610;19;20411;-60
2021/11/01 02:49:07;;;;;;;11.33;3.00;;;;;;;11.27;100.00;99119.63;7403327;19;20386;-60
2021/11/01 02:51:40;;;;;;;11.77;2.30;;;;;;;11.25;100.00;99115.28;7394800;19;20518;-59
2021/11/01 02:54:10;;;;;;;12.40;2.10;;;;;;;11.26;100.00;99132.50;7403768;19;20396;-59
2021/11/01 02:56:43;;;;;;;13.43;2.27;;;;;;;11.24;100.00;99123.88;7394167;19;20435;-59
2021/11/01 02:59:13;;;;;;;13.10;3.00;;;;;;;11.20;100.00;99110.94;7400487;19;20409;-59
2021/11/01 03:01:42;;;;;;;14.90;2.10;;;;;;;11.19;100.00;99118.66;7394183;19;20460;-60
2021/11/01 03:04:12;;;;;;;10.83;2.40;;;;;;;11.14;100.00;99126.38;7402073;19;20380;-59
2021/11/01 03:06:42;;;;;;;14.50;3.27;;;;;;;11.15;100.00;99122.94;7396333;19;20453;-59
2021/11/01 03:09:12;;;;;;;15.40;2.70;;;;;;;11.10;100.00;99121.13;7406763;19;20724;-60
2021/11/01 03:11:44;;;;;;;13.07;2.40;;;;;;;11.03;100.00;99125.34;7398762;19;20463;-59
2021/11/01 03:14:25;;;;;;;13.97;1.73;;;;;;;10.96;100.00;99128.69;7407500;19;20471;-60
2021/11/01 03:16:55;;;;;;;12.87;1.80;;;;;;;10.90;100.00;99117.44;7397753;19;20503;-59
2021/11/01 03:19:29;;;;;;;13.60;2.63;;;;;;;10.86;100.00;99132.84;7404554;19;20396;-59
2021/11/01 03:22:01;;;;;;;7.70;1.57;;;;;;;10.78;100.00;99128.41;7405126;19;20448;-59
2021/11/01 03:24:32;;;;;;;11.87;2.10;;;;;;;10.79;100.00;99131.88;7407082;19;20868;-59
2021/11/01 03:27:06;;;;;;;5.13;1.90;;;;;;;10.69;100.00;99136.03;7402035;19;20484;-59
2021/11/01 03:29:36;;;;;;;13.00;2.60;;;;;;;10.65;100.00;99142.84;7394753;19;20483;-60
2021/11/01 03:32:09;;;;;;;13.90;3.10;;;;;;;10.61;100.00;99138.47;7401718;19;20702;-60
2021/11/01 03:34:39;;;;;;;11.13;2.93;;;;;;;10.57;100.00;99141.88;7398534;19;21243;-59
2021/11/01 03:37:14;;;;;;;18.00;2.77;;;;;;;10.53;100.00;99134.94;7404423;19;20388;-59
2021/11/01 03:39:45;;;;;;;12.63;2.13;;;;;;;10.49;100.00;99143.44;7393795;19;20379;-59
2021/11/01 03:42:18;;;;;;;10.13;1.90;;;;;;;10.44;100.00;99155.38;7401381;19;20422;-63
2021/11/01 03:44:50;;;;;;;10.23;2.80;;;;;;;10.45;100.00;99146.84;7396758;19;20460;-60
2021/11/01 03:47:21;;;;;;;9.93;2.10;;;;;;;10.44;100.00;99153.69;7406206;19;20460;-59
2021/11/01 03:49:57;;;;;;;14.23;3.00;;;;;;;10.40;100.00;99164.75;7398543;19;20406;-59
2021/11/01 03:52:28;;;;;;;14.70;2.27;;;;;;;10.38;100.00;99166.44;7404803;19;20427;-59
2021/11/01 03:54:58;;;;;;;15.73;2.60;;;;;;;10.35;100.00;99167.25;7398046;19;20502;-57
2021/11/01 03:57:30;;;;;;;10.97;2.17;;;;;;;10.33;100.00;99174.09;7402736;19;20403;-59
2021/11/01 04:00:00;;;;;;;10.50;2.57;;;;;;;10.29;100.00;99169.72;7396389;19;20433;-58
2021/11/01 04:02:29;;;;;;;18.17;2.30;;;;;;;10.28;100.00;99175.72;7402814;19;20882;-59
2021/11/01 04:05:00;;;;;;;13.30;2.27;;;;;;;10.24;100.00;99168.78;7398227;19;20431;-59
2021/11/01 04:07:31;;;;;;;15.17;2.17;;;;;;;10.20;100.00;99159.28;7405527;19;20428;-59
2021/11/01 04:10:02;;;;;;;11.13;2.00;;;;;;;10.19;100.00;99154.94;7397205;19;20424;-59
2021/11/01 04:12:34;;;;;;;14.83;2.07;;;;;;;10.18;100.00;99166.09;7400360;19;20483;-59
2021/11/01 04:15:07;;;;;;;12.90;2.60;;;;;;;10.16;100.00;99165.19;7392568;19;20875;-59
2021/11/01 04:17:42;;;;;;;13.17;2.60;;;;;;;10.11;100.00;99158.25;7401057;19;20376;-59
2021/11/01 04:20:29;;;;;;;7.00;2.13;;;;;;;10.11;100.00;99158.25;7392673;19;20414;-59
2021/11/01 04:23:01;;;;;;;12.23;2.10;;;;;;;10.10;100.00;99146.22;7402179;19;20539;-59
2021/11/01 04:25:32;;;;;;;15.67;3.20;;;;;;;10.09;100.00;99152.22;7393675;19;20444;-59
2021/11/01 04:28:05;;;;;;;18.50;2.87;;;;;;;10.05;100.00;99152.13;7401191;19;20722;-59
2021/11/01 04:30:38;;;;;;;11.10;2.60;;;;;;;10.00;100.00;99149.44;7393168;19;20492;-58
2021/11/01 04:33:11;;;;;;;9.83;1.60;;;;;;;9.99;100.00;99142.56;7403227;19;20499;-59
2021/11/01 04:35:40;;;;;;;23.60;2.97;;;;;;;9.98;100.00;99161.44;7393463;19;20419;-59
2021/11/01 04:38:18;;;;;;;12.43;2.30;;;;;;;9.96;100.00;99153.69;7400300;19;20845;-58
2021/11/01 04:54:23;;;;;;;15.13;3.60;;;;;;;9.91;100.00;99149.28;7400036;19;20384;-59
2021/11/01 04:56:53;;;;;;;15.23;2.53;;;;;;;9.89;100.00;99161.28;7392897;19;20476;-59
2021/11/01 04:59:25;;;;;;;13.13;2.20;;;;;;;9.87;100.00;99161.25;7398417;19;20380;-59
2021/11/01 05:01:55;;;;;;;9.63;1.70;;;;;;;9.86;100.00;99162.94;7391863;19;20417;-59
2021/11/01 05:04:27;;;;;;;18.57;2.63;;;;;;;9.83;100.00;99164.59;7399712;19;20384;-59
2021/11/01 05:07:00;;;;;;;18.90;3.23;;;;;;;9.83;100.00;99172.31;7396077;19;20464;-60
2021/11/01 05:09:33;;;;;;;17.63;2.30;;;;;;;9.83;100.00;99162.91;7398571;19;20405;-59
2021/11/01 05:12:12;;;;;;;15.90;2.83;;;;;;;9.82;100.00;99179.19;7394433;19;20757;-59
2021/11/01 05:14:53;;;;;;;15.17;2.73;;;;;;;9.83;100.00;99170.63;7390613;19;20880;-60
2021/11/01 05:17:34;;;;;;;25.33;3.67;;;;;;;9.81;100.00;99171.44;7399079;19;20459;-59
2021/11/01 05:20:09;;;;;;;16.00;2.60;;;;;;;9.79;100.00;99183.41;7392600;19;20426;-59
2021/11/01 05:22:45;;;;;;;15.47;2.70;;;;;;;9.81;100.00;99203.22;7398395;19;20486;-59
2021/11/01 05:25:17;;;;;;;15.77;2.77;;;;;;;9.81;100.00;99195.50;7395330;19;20415;-60
2021/11/01 05:27:54;;;;;;;21.90;3.37;;;;;;;9.80;100.00;99205.75;7406202;19;20559;-59
2021/11/01 05:30:32;;;;;;;20.13;3.80;;;;;;;9.85;100.00;99194.69;7402159;19;20425;-59
2021/11/01 05:33:19;;;;;;;11.40;2.90;;;;;;;9.79;100.00;99202.31;7404304;19;20420;-59
2021/11/01 05:35:48;;;;;;;30.07;3.47;;;;;;;9.79;100.00;99202.31;7399236;19;20696;-59
2021/11/01 05:38:18;;;;;;;17.50;2.90;;;;;;;9.80;100.00;99198.88;7406355;19;20455;-60
2021/11/01 05:40:47;;;;;;;15.23;3.33;;;;;;;9.80;100.00;99187.72;7398139;19;20423;-59
2021/11/01 05:43:17;;;;;;;17.60;3.20;;;;;;;9.78;100.00;99185.13;7407336;19;20499;-60
2021/11/01 05:45:49;;;;;;;12.27;3.47;;;;;;;9.79;100.00;99192.00;7399941;19;20756;-59
2021/11/01 05:48:18;;;;;;;17.77;3.00;;;;;;;9.78;100.00;99179.09;7406063;19;20390;-59
2021/11/01 05:50:48;;;;;;;13.10;3.03;;;;;;;9.77;100.00;99182.50;7397728;19;20756;-59
2021/11/01 05:53:17;;;;;;;17.10;3.73;;;;;;;9.78;100.00;99190.25;7403048;19;20433;-59
2021/11/01 05:55:53;;;;;;;12.77;2.70;;;;;;;9.76;100.00;99194.53;7398349;19;20403;-58
2021/11/01 05:58:29;;;;;;;19.67;3.63;;;;;;;9.81;100.00;99182.63;7406431;19;20383;-60
2021/11/01 06:03:46;;;;;;;15.80;3.23;;;;;;;9.75;100.00;99190.22;7402548;19;20427;-59
2021/11/01 06:06:24;;;;;;;11.13;2.93;;;;;;;9.76;100.00;99191.94;7400716;19;20753;-59
2021/11/01 06:14:25;;;;;;;11.50;3.87;;;;;;;9.75;100.00;99205.69;7405300;19;20396;-59
2021/11/01 06:16:58;;;;;;;15.20;3.20;;;;;;;9.76;100.00;99211.69;7397812;19;20697;-59
2021/11/01 06:19:28;;;;;;;18.80;4.07;;;;;;;9.79;100.00;99211.75;7404046;19;20408;-59
2021/11/01 06:21:57;;;;;;;14.67;3.83;;;;;;;9.81;100.00;99205.81;7400770;19;20499;-59
2021/11/01 06:24:47;;;;;;;23.73;3.83;;;;;;;9.78;100.00;99210.88;7404952;19;20391;-59
2021/11/01 06:27:18;;;;;;;18.17;4.13;;;;;;;9.80;100.00;99219.50;7402094;19;20479;-59
2021/11/01 06:29:57;;;;;;;8.60;2.43;;;;;;;9.78;100.00;99221.19;7396376;19;20411;-60
2021/11/01 06:32:40;;;;;;;17.70;4.03;;;;;;;9.84;100.00;99211.00;7403366;19;20463;-59
2021/11/01 06:40:42;;;;;;;15.17;3.77;;;;;;;9.82;100.00;99220.41;7400584;19;20437;-60
2021/11/01 06:43:15;;;;;;;18.60;3.53;;;;;;;9.78;100.00;99222.88;7402996;19;20491;-59
2021/11/01 06:54:50;;;;;;;20.40;4.37;;;;;;;9.76;100.00;99222.88;7403781;19;20388;-60
2021/11/01 06:57:35;;;;;;;25.90;4.93;;;;;;;9.77;100.00;99219.44;7403539;19;20410;-60
2021/11/01 07:16:24;;;;;;;15.30;4.20;;;;;;;9.79;100.00;99247.81;7400064;19;20932;-60
2021/11/01 07:18:59;;;;;;;15.17;3.53;;;;;;;9.79;100.00;99258.97;7402218;19;20400;-59
2021/11/01 07:21:50;;;;;;;11.47;3.40;;;;;;;9.79;100.00;99263.28;7394119;19;20712;-60
2021/11/01 07:30:24;;;;;;;9.20;3.80;;;;;;;9.80;100.00;99260.69;7397370;19;20502;-59
2021/11/01 08:17:14;;;;;;;18.43;4.30;;;;;;;9.84;100.00;99274.50;7405624;19;20451;-59
2021/11/01 08:25:36;;;;;;;17.30;4.43;;;;;;;10.25;100.00;99299.38;7392792;19;20403;-60
2021/11/01 08:36:59;;;;;;;6.70;1.90;;;;;;;10.29;100.00;99301.19;7387419;19;20415;-59
2021/11/01 08:40:00;;;;;;;5.63;2.20;;;;;;;10.28;100.00;99304.63;7396213;19;20459;-60
2021/11/01 08:42:45;;;;;;;14.17;2.17;;;;;;;10.29;100.00;99290.03;7394580;19;20417;-59
2021/11/01 09:04:48;;;;;;;5.93;1.93;;;;;;;10.42;100.00;99312.63;7396837;19;20459;-58
2021/11/01 09:23:51;;;;;;;7.70;1.77;;;;;;;10.63;100.00;99319.06;7395369;19;20439;-58
2021/11/01 09:26:27;;;;;;;12.60;2.37;;;;;;;10.65;100.00;99314.78;7393365;19;20433;-59
2021/11/01 09:29:01;;;;;;;4.17;1.50;;;;;;;10.62;100.00;99320.75;7397057;19;20858;-57
2021/11/01 09:37:09;;;;;;;4.97;1.83;;;;;;;10.56;100.00;99323.22;7393437;19;20519;-60
2021/11/01 09:42:27;;;;;;;5.00;1.60;;;;;;;10.57;100.00;99334.41;7395222;19;20438;-60
2021/11/01 09:44:56;;;;;;;4.37;1.00;;;;;;;10.49;100.00;99342.88;7394497;19;20376;-59
2021/11/01 09:47:27;;;;;;;7.80;1.30;;;;;;;10.53;100.00;99333.50;7396959;19;20477;-59
2021/11/01 09:50:00;;;;;;;13.97;1.93;;;;;;;10.45;100.00;99340.22;7397946;19;20661;-58
2021/11/01 09:52:31;;;;;;;17.20;1.90;;;;;;;10.43;100.00;99347.91;7343810;19;20438;-60
2021/11/01 09:55:13;;;;;;;5.60;1.30;;;;;;;10.39;100.00;99343.50;7368798;19;20388;-59
2021/11/01 09:59:11;;;;;;;12.30;2.30;;;;;;;10.43;100.00;99349.63;7397991;19;20388;-59
2021/11/01 10:00:32;;;;;;;5.97;1.80;;;;;;;10.49;100.00;99358.34;7375908;19;20709;-60
2021/11/01 10:03:01;;;;;;;8.60;1.80;;;;;;;10.64;100.00;99360.38;7396129;19;20428;-60
2021/11/01 10:05:35;;;;;;;11.87;2.10;;;;;;;10.67;100.00;99355.25;7392139;19;20847;-59
2021/11/01 10:08:05;;;;;;;13.80;2.07;;;;;;;10.70;100.00;99363.88;7397912;19;20702;-59
2021/11/01 10:10:42;;;;;;;12.90;2.90;;;;;;;10.76;100.00;99361.41;7391489;19;20494;-59
2021/11/01 10:13:16;;;;;;;25.57;3.00;;;;;;;10.85;100.00;99364.19;7398266;19;20872;-60
2021/11/01 10:18:29;;;;;;;10.10;2.43;;;;;;;10.85;100.00;99369.34;7404673;19;20375;-59
2021/11/01 10:21:01;;;;;;;7.63;1.60;;;;;;;10.83;100.00;99371.03;7398463;19;20442;-58
2021/11/01 10:23:33;;;;;;;8.03;1.37;;;;;;;10.84;100.00;99362.44;7401978;19;20491;-59
2021/11/01 10:26:08;;;;;;;6.93;1.90;;;;;;;10.90;100.00;99366.84;7397446;19;20430;-59
2021/11/01 10:28:38;;;;;;;2.93;0.90;;;;;;;10.89;100.00;99360.81;7403072;19;20468;-59
2021/11/01 10:31:08;;;;;;;15.20;1.80;;;;;;;10.94;100.00;99358.31;7400008;19;20430;-59
2021/11/01 10:33:43;;;;;;;6.57;1.60;;;;;;;11.03;100.00;99357.63;7402174;19;20425;-58
2021/11/01 10:36:29;;;;;;;13.43;1.50;;;;;;;11.04;100.00;99352.44;7370173;19;20451;-59
2021/11/01 10:39:01;;;;;;;5.03;1.77;;;;;;;11.05;100.00;99359.38;7402843;19;20388;-60
2021/11/01 10:41:46;;;;;;;7.13;2.40;;;;;;;11.15;100.00;99368.16;7398948;19;20434;-59
2021/11/01 11:11:59;;;;;;;8.93;1.80;;;;;;;11.39;100.00;99358.19;7395637;19;20416;-59
2021/11/01 11:14:34;;;;;;;5.30;1.73;;;;;;;11.53;100.00;99353.25;7403020;19;20456;-59
2021/11/01 11:20:20;;;;;;;4.90;1.43;;;;;;;11.75;100.00;99357.88;7401235;19;20693;-59
2021/11/01 11:32:07;;;;;;;5.10;1.40;;;;;;;11.50;100.00;99354.09;7380907;19;20486;-60
2021/11/01 11:37:47;;;;;;;6.63;1.40;;;;;;;11.72;100.00;99347.53;7402120;19;20429;-60
2021/11/01 11:40:42;;;;;;;5.30;1.60;;;;;;;11.61;100.00;99351.66;7397623;19;20926;-59
2021/11/01 11:43:32;;;;;;;5.97;1.57;;;;;;;11.69;100.00;99355.22;7400652;19;20425;-60
2021/11/01 11:48:46;;;;;;;5.07;1.70;;;;;;;11.84;100.00;99366.63;7401885;19;20372;-60
2021/11/01 11:51:15;;;;;;;6.50;1.70;;;;;;;11.77;100.00;99369.94;7395945;19;20497;-59
2021/11/01 11:53:57;;;;;;;5.50;1.60;;;;;;;11.82;100.00;99369.19;7398472;19;20428;-60
2021/11/01 11:56:32;;;;;;;4.27;1.50;;;;;;;11.75;100.00;99360.47;7396442;19;20446;-59
2021/11/01 11:59:06;;;;;;;11.00;1.70;;;;;;;11.64;100.00;99364.59;7404035;19;20389;-59
2021/11/01 12:01:37;;;;;;;14.10;1.93;;;;;;;11.79;100.00;99365.69;7398267;19;20521;-59
2021/11/01 12:04:20;;;;;;;4.53;1.73;;;;;;;11.83;100.00;99357.13;7403141;19;20401;-60
2021/11/01 12:06:56;;;;;;;5.83;1.70;;;;;;;11.82;100.00;99355.38;7394432;19;20430;-60
2021/11/01 12:09:29;;;;;;;8.10;1.80;;;;;;;11.72;100.00;99355.28;7400841;19;20393;-60
2021/11/01 12:12:27;;;;;;;5.73;1.60;;;;;;;11.60;100.00;99345.59;7396292;19;20418;-60
2021/11/01 12:17:49;;;;;;;5.87;1.87;;;;;;;11.63;100.00;99357.69;7398784;19;20463;-60
2021/11/01 12:20:22;;;;;;;8.03;1.80;;;;;;;11.58;100.00;99361.94;7394610;19;20473;-60
2021/11/01 12:22:59;;;;;;;4.50;1.70;;;;;;;11.59;100.00;99355.94;7399512;19;20445;-60
2021/11/01 12:25:39;;;;;;;4.70;1.50;;;;;;;11.58;100.00;99362.81;7396725;19;20486;-60
2021/11/01 12:28:18;;;;;;;3.40;1.60;;;;;;;11.93;100.00;99368.47;7399953;19;20732;-60
2021/11/01 12:30:56;;;;;;;10.53;1.97;;;;;;;12.25;100.00;99361.19;7396244;19;20506;-60
2021/11/01 12:33:28;;;;;;;4.50;1.27;;;;;;;12.25;100.00;99361.19;7400463;19;20418;-60
2021/11/01 12:36:04;;;;;;;6.17;1.27;;;;;;;12.31;100.00;99359.50;7393462;19;20936;-60
2021/11/01 12:38:40;;;;;;;4.87;1.60;;;;;;;12.40;100.00;99370.84;7404245;19;20406;-60
2021/11/01 12:41:24;;;;;;;6.47;1.60;;;;;;;12.68;100.00;99370.28;7398260;19;20455;-60
2021/11/01 12:57:59;;;;;;;6.50;2.57;;;;;;;13.20;100.00;99379.44;7404090;19;20387;-60
2021/11/01 13:00:38;;;;;;;3.27;1.03;;;;;;;13.16;100.00;99388.91;7393738;19;20453;-60
2021/11/01 13:03:19;;;;;;;8.33;3.10;;;;;;;12.88;100.00;99388.63;7400656;19;20444;-60
2021/11/01 13:05:53;;;;;;;7.80;1.90;;;;;;;12.98;100.00;99389.59;7396373;19;20450;-60
2021/11/01 13:08:27;;;;;;;5.70;2.10;;;;;;;12.65;100.00;99386.66;7403314;19;20402;-60
2021/11/01 13:11:02;;;;;;;4.93;1.70;;;;;;;13.04;100.00;99381.88;7397656;19;20927;-60
2021/11/01 13:14:12;;;;;;;10.23;2.10;;;;;;;12.86;100.00;99381.69;7400811;19;20415;-60
2021/11/01 13:19:27;;;;;;;5.90;1.77;;;;;;;12.34;100.00;99386.28;7402276;19;20650;-60
2021/11/01 13:22:05;;;;;;;2.90;1.60;;;;;;;12.43;100.00;99385.53;7396568;19;20445;-60
2021/11/01 13:24:46;;;;;;;7.50;2.60;;;;;;;12.70;100.00;99386.69;7401620;19;20391;-60
2021/11/01 13:27:31;;;;;;;4.70;1.70;;;;;;;12.67;100.00;99389.25;7401460;19;20718;-60
2021/11/01 13:38:29;;;;;;;8.13;2.63;;;;;;;12.40;100.00;99409.63;7401669;19;20390;-59
2021/11/01 13:40:59;;;;;;;7.53;2.00;;;;;;;12.54;100.00;99416.69;7393475;19;20448;-60
2021/11/01 13:43:30;;;;;;;5.80;2.70;;;;;;;12.58;100.00;99413.31;7400153;19;20698;-60
2021/11/01 13:46:01;;;;;;;6.63;2.17;;;;;;;12.14;100.00;99419.63;7392596;19;20537;-59
2021/11/01 13:48:33;;;;;;;11.17;3.97;;;;;;;12.00;100.00;99407.34;7409558;19;20645;-60
2021/11/01 13:51:08;;;;;;;3.53;1.90;;;;;;;12.06;100.00;99422.13;7401962;19;20460;-60
2021/11/01 13:53:45;;;;;;;9.23;2.90;;;;;;;11.93;100.00;99420.16;7407274;19;20421;-59
2021/11/01 13:56:24;;;;;;;5.60;2.53;;;;;;;11.89;100.00;99412.38;7401203;19;20507;-60
2021/11/01 13:58:58;;;;;;;4.27;1.50;;;;;;;11.67;100.00;99421.50;7408719;19;20720;-60
2021/11/01 14:01:56;;;;;;;5.80;2.53;;;;;;;11.59;100.00;99415.34;7401738;19;20458;-59
2021/11/01 14:12:49;;;;;;;6.57;2.40;;;;;;;11.52;100.00;99428.97;7407614;19;20410;-59
2021/11/01 14:29:17;;;;;;;8.43;3.00;;;;;;;11.67;100.00;99413.75;7406382;19;20418;-59
2021/11/01 14:32:00;;;;;;;13.17;2.30;;;;;;;11.66;100.00;99430.09;7398626;19;20456;-58
2021/11/01 14:35:01;;;;;;;3.60;2.10;;;;;;;11.61;100.00;99435.19;7408714;19;20385;-58
2021/11/01 14:59:38;;;;;;;6.03;2.07;;;;;;;11.54;100.00;99433.34;7405807;19;20457;-57
2021/11/01 15:13:28;;;;;;;7.03;3.93;;;;;;;11.45;100.00;99444.38;7405423;19;20425;-58
2021/11/01 15:18:47;;;;;;;7.87;2.13;;;;;;;11.14;100.00;99443.88;7405910;19;20396;-58
2021/11/01 15:21:26;;;;;;;7.00;3.60;;;;;;;11.18;100.00;99444.78;7398125;19;20777;-59
2021/11/01 16:18:46;;;;;;;10.53;2.90;;;;;;;10.44;100.00;99464.81;7401171;19;20391;-59
2021/11/01 16:21:15;;;;;;;4.47;2.80;;;;;;;10.40;100.00;99476.72;7392894;19;20511;-59
2021/11/01 16:23:45;;;;;;;5.10;2.17;;;;;;;10.34;100.00;99472.31;7399121;19;20435;-58
2021/11/01 16:26:26;;;;;;;7.23;2.60;;;;;;;10.32;100.00;99481.75;7394253;19;20436;-59
2021/11/01 16:29:00;;;;;;;10.20;3.20;;;;;;;10.28;100.00;99479.91;7401555;19;20716;-59
2021/11/01 16:31:42;;;;;;;7.47;2.80;;;;;;;10.27;100.00;99483.34;7392723;19;20430;-59
2021/11/01 16:34:19;;;;;;;4.87;2.70;;;;;;;10.22;100.00;99477.19;7400694;19;20424;-59
2021/11/01 16:37:11;;;;;;;9.73;3.57;;;;;;;10.24;100.00;99488.41;7393127;19;20414;-59
2021/11/01 16:39:51;;;;;;;9.47;3.60;;;;;;;10.23;100.00;99479.81;7399785;19;20385;-59
2021/11/01 16:42:22;;;;;;;4.93;2.30;;;;;;;10.23;100.00;99484.97;7397941;19;20740;-59
2021/11/01 16:44:53;;;;;;;7.67;3.53;;;;;;;10.21;100.00;99483.19;7392387;19;20383;-60
2021/11/01 16:47:23;;;;;;;4.27;2.30;;;;;;;10.20;100.00;99482.31;7399746;19;20409;-59
2021/11/01 16:49:55;;;;;;;4.30;2.53;;;;;;;10.18;100.00;99485.69;7389129;19;20413;-59
2021/11/01 16:52:25;;;;;;;10.70;3.53;;;;;;;10.19;100.00;99482.25;7398778;19;20708;-59
2021/11/01 16:54:57;;;;;;;8.27;4.30;;;;;;;10.15;100.00;99485.63;7392012;19;20404;-59
2021/11/01 16:57:36;;;;;;;9.17;2.87;;;;;;;10.15;100.00;99488.22;7398650;19;20388;-59
2021/11/01 17:00:19;;;;;;;7.87;3.27;;;;;;;10.08;100.00;99482.91;7392384;19;20395;-60
2021/11/01 17:02:59;;;;;;;14.40;5.53;;;;;;;10.06;100.00;99487.13;7398428;19;20517;-59
2021/11/01 17:05:38;;;;;;;10.20;3.93;;;;;;;10.05;100.00;99489.69;7392325;19;20892;-59
2021/11/01 17:21:13;;;;;;;7.67;2.70;;;;;;;9.86;100.00;99484.97;7390991;19;20465;-60
2021/11/01 17:22:16;;;;;;;5.73;2.90;;;;;;;9.72;100.00;99489.78;7393994;19;20512;-59
2021/11/01 17:24:49;;;;;;;6.33;2.93;;;;;;;9.71;100.00;99487.16;7399629;19;20471;-59
2021/11/01 17:27:41;;;;;;;8.40;4.03;;;;;;;9.71;100.00;99492.31;7401117;19;20455;-59
2021/11/01 17:35:50;;;;;;;6.40;3.40;;;;;;;9.62;100.00;99492.97;7391145;19;20486;-59
2021/11/01 17:38:54;;;;;;;11.80;3.57;;;;;;;9.59;100.00;99496.31;7398205;19;20424;-59
2021/11/01 18:39:10;;;;;;;11.80;4.43;;;;;;;8.84;100.00;99510.59;7408500;19;20837;-59
2021/11/01 18:41:43;;;;;;;8.10;3.90;;;;;;;8.80;100.00;99516.47;7395240;19;20411;-60
2021/11/01 18:52:32;;;;;;;11.23;3.80;;;;;;;8.63;100.00;99514.28;7397560;19;20442;-59
2021/11/01 18:55:08;;;;;;;8.27;4.10;;;;;;;8.56;100.00;99518.38;7400382;19;20394;-59
2021/11/01 18:57:38;;;;;;;8.80;4.17;;;;;;;8.50;100.00;99516.47;7403590;19;20398;-60
2021/11/01 19:00:11;;;;;;;11.00;4.03;;;;;;;8.46;100.00;99519.75;7396622;19;20402;-59
2021/11/01 19:02:45;;;;;;;9.10;4.60;;;;;;;8.47;100.00;99511.22;7402276;19;20551;-59
2021/11/01 19:05:32;;;;;;;9.50;4.57;;;;;;;8.46;100.00;99509.47;7394589;19;20439;-59
2021/11/01 19:08:18;;;;;;;6.13;3.63;;;;;;;8.49;100.00;99507.00;7403576;19;20473;-59
2021/11/01 19:11:23;;;;;;;10.07;4.37;;;;;;;8.46;100.00;99506.03;7396392;19;20422;-59
2021/11/01 19:14:23;;;;;;;9.57;4.70;;;;;;;8.43;100.00;99498.22;7403428;19;20395;-59